sensor_id;sensor_type;location;lat;lon;timestamp;P1;durP1;ratioP1;P2;durP2;ratioP2
18249;SDS011;27980;52.126;5.572;2024-03-08T00:02:09;37.53;;;16.02;;
18249;SDS011;27980;52.126;5.572;2024-03-08T00:04:35;40.78;;;17.90;;
18249;SDS011;27980;52.126;5.572;2024-03-08T00:07:02;34.47;;;16.10;;
18249;SDS011;27980;52.126;5.572;2024-03-08T00:09:29;31.15;;;15.13;;
18249;SDS011;27980;52.126;5.572;2024-03-08T00:11:56;36.88;;;16.98;;
18249;SDS011;27980;52.126;5.572;2024-03-08T00:14:22;39.75;;;17.20;;
18249;SDS011;27980;52.126;5.572;2024-03-08T00:16:49;32.25;;;16.15;;
18249;SDS011;27980;52.126;5.572;2024-03-08T00:19:17;40.40;;;17.45;;
18249;SDS011;27980;52.126;5.572;2024-03-08T00:21:43;38.95;;;18.13;;
18249;SDS011;27980;52.126;5.572;2024-03-08T00:24:10;33.83;;;16.42;;
18249;SDS011;27980;52.126;5.572;2024-03-08T00:26:37;35.58;;;16.27;;
18249;SDS011;27980;52.126;5.572;2024-03-08T00:29:04;39.20;;;15.75;;
18249;SDS011;27980;52.126;5.572;2024-03-08T00:31:32;35.97;;;16.23;;
18249;SDS011;27980;52.126;5.572;2024-03-08T00:33:59;40.78;;;16.23;;
18249;SDS011;27980;52.126;5.572;2024-03-08T00:36:27;32.42;;;15.63;;
18249;SDS011;27980;52.126;5.572;2024-03-08T00:38:56;37.83;;;16.48;;
18249;SDS011;27980;52.126;5.572;2024-03-08T00:41:23;38.15;;;15.82;;
18249;SDS011;27980;52.126;5.572;2024-03-08T00:43:51;34.90;;;15.75;;
18249;SDS011;27980;52.126;5.572;2024-03-08T00:46:17;40.05;;;16.15;;
18249;SDS011;27980;52.126;5.572;2024-03-08T00:48:44;31.83;;;15.60;;
18249;SDS011;27980;52.126;5.572;2024-03-08T00:51:12;36.20;;;16.40;;
18249;SDS011;27980;52.126;5.572;2024-03-08T00:53:41;33.97;;;16.65;;
18249;SDS011;27980;52.126;5.572;2024-03-08T00:56:08;34.63;;;15.90;;
18249;SDS011;27980;52.126;5.572;2024-03-08T00:58:35;35.65;;;16.50;;
18249;SDS011;27980;52.126;5.572;2024-03-08T01:01:02;33.10;;;16.65;;
18249;SDS011;27980;52.126;5.572;2024-03-08T01:03:29;37.13;;;15.85;;
18249;SDS011;27980;52.126;5.572;2024-03-08T01:05:57;32.95;;;15.18;;
18249;SDS011;27980;52.126;5.572;2024-03-08T01:08:26;34.83;;;17.08;;
18249;SDS011;27980;52.126;5.572;2024-03-08T01:10:54;34.60;;;16.60;;
18249;SDS011;27980;52.126;5.572;2024-03-08T01:13:20;39.85;;;17.17;;
18249;SDS011;27980;52.126;5.572;2024-03-08T01:15:47;33.88;;;15.70;;
18249;SDS011;27980;52.126;5.572;2024-03-08T01:18:14;34.25;;;16.83;;
18249;SDS011;27980;52.126;5.572;2024-03-08T01:20:40;40.90;;;16.05;;
18249;SDS011;27980;52.126;5.572;2024-03-08T01:23:07;36.65;;;17.10;;
18249;SDS011;27980;52.126;5.572;2024-03-08T01:25:33;32.22;;;15.80;;
18249;SDS011;27980;52.126;5.572;2024-03-08T01:28:01;30.25;;;15.70;;
18249;SDS011;27980;52.126;5.572;2024-03-08T01:30:27;30.80;;;15.73;;
18249;SDS011;27980;52.126;5.572;2024-03-08T01:32:54;37.17;;;16.45;;
18249;SDS011;27980;52.126;5.572;2024-03-08T01:35:20;36.70;;;16.88;;
18249;SDS011;27980;52.126;5.572;2024-03-08T01:37:47;31.38;;;16.45;;
18249;SDS011;27980;52.126;5.572;2024-03-08T01:40:14;34.00;;;15.82;;
18249;SDS011;27980;52.126;5.572;2024-03-08T01:42:41;33.13;;;15.77;;
18249;SDS011;27980;52.126;5.572;2024-03-08T01:45:09;36.78;;;16.88;;
18249;SDS011;27980;52.126;5.572;2024-03-08T01:47:36;34.40;;;16.90;;
18249;SDS011;27980;52.126;5.572;2024-03-08T01:50:03;33.63;;;15.82;;
18249;SDS011;27980;52.126;5.572;2024-03-08T01:52:33;36.83;;;17.02;;
18249;SDS011;27980;52.126;5.572;2024-03-08T01:55:00;35.42;;;17.20;;
18249;SDS011;27980;52.126;5.572;2024-03-08T01:57:28;32.53;;;16.58;;
18249;SDS011;27980;52.126;5.572;2024-03-08T01:59:58;34.63;;;15.30;;
18249;SDS011;27980;52.126;5.572;2024-03-08T02:02:29;40.53;;;17.42;;
18249;SDS011;27980;52.126;5.572;2024-03-08T02:04:57;34.38;;;17.38;;
18249;SDS011;27980;52.126;5.572;2024-03-08T02:07:24;40.30;;;17.52;;
18249;SDS011;27980;52.126;5.572;2024-03-08T02:09:53;36.95;;;17.58;;
18249;SDS011;27980;52.126;5.572;2024-03-08T02:12:19;34.38;;;16.60;;
18249;SDS011;27980;52.126;5.572;2024-03-08T02:14:48;34.42;;;16.42;;
18249;SDS011;27980;52.126;5.572;2024-03-08T02:17:14;35.97;;;16.20;;
18249;SDS011;27980;52.126;5.572;2024-03-08T02:19:42;35.97;;;16.63;;
18249;SDS011;27980;52.126;5.572;2024-03-08T02:22:10;35.15;;;17.40;;
18249;SDS011;27980;52.126;5.572;2024-03-08T02:24:39;32.67;;;16.27;;
18249;SDS011;27980;52.126;5.572;2024-03-08T02:27:06;38.25;;;17.95;;
18249;SDS011;27980;52.126;5.572;2024-03-08T02:29:32;33.33;;;16.88;;
18249;SDS011;27980;52.126;5.572;2024-03-08T02:32:03;36.22;;;16.08;;
18249;SDS011;27980;52.126;5.572;2024-03-08T02:34:29;36.13;;;16.67;;
18249;SDS011;27980;52.126;5.572;2024-03-08T02:36:57;31.92;;;16.70;;
18249;SDS011;27980;52.126;5.572;2024-03-08T02:39:25;35.47;;;16.70;;
18249;SDS011;27980;52.126;5.572;2024-03-08T02:41:52;35.40;;;17.83;;
18249;SDS011;27980;52.126;5.572;2024-03-08T02:44:19;36.33;;;16.85;;
18249;SDS011;27980;52.126;5.572;2024-03-08T02:46:46;31.98;;;16.42;;
18249;SDS011;27980;52.126;5.572;2024-03-08T02:49:13;35.95;;;16.55;;
18249;SDS011;27980;52.126;5.572;2024-03-08T02:51:39;34.53;;;16.23;;
18249;SDS011;27980;52.126;5.572;2024-03-08T02:54:05;41.72;;;16.67;;
18249;SDS011;27980;52.126;5.572;2024-03-08T02:56:34;32.08;;;16.35;;
18249;SDS011;27980;52.126;5.572;2024-03-08T02:59:01;44.40;;;17.55;;
18249;SDS011;27980;52.126;5.572;2024-03-08T03:01:27;29.98;;;15.85;;
18249;SDS011;27980;52.126;5.572;2024-03-08T03:03:54;34.10;;;17.30;;
18249;SDS011;27980;52.126;5.572;2024-03-08T03:06:20;36.17;;;17.85;;
18249;SDS011;27980;52.126;5.572;2024-03-08T03:08:47;39.50;;;16.70;;
18249;SDS011;27980;52.126;5.572;2024-03-08T03:11:13;33.42;;;18.20;;
18249;SDS011;27980;52.126;5.572;2024-03-08T03:13:41;34.92;;;17.92;;
18249;SDS011;27980;52.126;5.572;2024-03-08T03:16:16;34.45;;;16.85;;
18249;SDS011;27980;52.126;5.572;2024-03-08T03:18:43;39.88;;;17.70;;
18249;SDS011;27980;52.126;5.572;2024-03-08T03:21:10;34.75;;;16.90;;
18249;SDS011;27980;52.126;5.572;2024-03-08T03:23:38;30.63;;;16.75;;
18249;SDS011;27980;52.126;5.572;2024-03-08T03:26:04;36.95;;;17.90;;
18249;SDS011;27980;52.126;5.572;2024-03-08T03:28:32;38.47;;;17.65;;
18249;SDS011;27980;52.126;5.572;2024-03-08T03:31:00;39.05;;;17.95;;
18249;SDS011;27980;52.126;5.572;2024-03-08T03:33:26;34.97;;;16.90;;
18249;SDS011;27980;52.126;5.572;2024-03-08T03:35:54;33.92;;;17.88;;
18249;SDS011;27980;52.126;5.572;2024-03-08T03:38:21;36.78;;;18.08;;
18249;SDS011;27980;52.126;5.572;2024-03-08T03:40:51;39.85;;;16.60;;
18249;SDS011;27980;52.126;5.572;2024-03-08T03:43:21;38.35;;;18.10;;
18249;SDS011;27980;52.126;5.572;2024-03-08T03:45:47;38.75;;;17.58;;
18249;SDS011;27980;52.126;5.572;2024-03-08T03:48:15;32.72;;;16.85;;
18249;SDS011;27980;52.126;5.572;2024-03-08T03:50:41;32.88;;;18.05;;
18249;SDS011;27980;52.126;5.572;2024-03-08T03:53:09;34.63;;;18.02;;
18249;SDS011;27980;52.126;5.572;2024-03-08T03:55:36;32.47;;;16.10;;
18249;SDS011;27980;52.126;5.572;2024-03-08T03:58:03;34.40;;;16.88;;
18249;SDS011;27980;52.126;5.572;2024-03-08T04:00:29;37.78;;;17.38;;
18249;SDS011;27980;52.126;5.572;2024-03-08T04:02:57;33.97;;;16.77;;
18249;SDS011;27980;52.126;5.572;2024-03-08T04:05:26;32.97;;;16.95;;
18249;SDS011;27980;52.126;5.572;2024-03-08T04:07:53;31.80;;;17.38;;
18249;SDS011;27980;52.126;5.572;2024-03-08T04:10:19;35.63;;;16.98;;
18249;SDS011;27980;52.126;5.572;2024-03-08T04:12:46;34.05;;;18.38;;
18249;SDS011;27980;52.126;5.572;2024-03-08T04:15:12;33.08;;;16.63;;
18249;SDS011;27980;52.126;5.572;2024-03-08T04:17:38;32.33;;;17.77;;
18249;SDS011;27980;52.126;5.572;2024-03-08T04:20:05;32.47;;;17.15;;
18249;SDS011;27980;52.126;5.572;2024-03-08T04:22:36;33.13;;;17.38;;
18249;SDS011;27980;52.126;5.572;2024-03-08T04:25:03;34.65;;;17.25;;
18249;SDS011;27980;52.126;5.572;2024-03-08T04:27:31;31.65;;;16.90;;
18249;SDS011;27980;52.126;5.572;2024-03-08T04:29:57;33.10;;;17.80;;
18249;SDS011;27980;52.126;5.572;2024-03-08T04:32:24;37.17;;;18.67;;
18249;SDS011;27980;52.126;5.572;2024-03-08T04:34:50;33.50;;;17.77;;
18249;SDS011;27980;52.126;5.572;2024-03-08T04:37:17;37.65;;;18.38;;
18249;SDS011;27980;52.126;5.572;2024-03-08T04:39:47;35.38;;;17.92;;
18249;SDS011;27980;52.126;5.572;2024-03-08T04:42:14;36.20;;;17.48;;
18249;SDS011;27980;52.126;5.572;2024-03-08T04:44:43;37.92;;;18.52;;
18249;SDS011;27980;52.126;5.572;2024-03-08T04:47:09;33.53;;;17.48;;
18249;SDS011;27980;52.126;5.572;2024-03-08T04:49:36;42.55;;;19.30;;
18249;SDS011;27980;52.126;5.572;2024-03-08T04:52:02;36.08;;;18.88;;
18249;SDS011;27980;52.126;5.572;2024-03-08T04:54:29;35.13;;;17.88;;
18249;SDS011;27980;52.126;5.572;2024-03-08T04:56:57;32.13;;;16.13;;
18249;SDS011;27980;52.126;5.572;2024-03-08T04:59:25;31.25;;;17.58;;
18249;SDS011;27980;52.126;5.572;2024-03-08T05:01:54;30.40;;;16.50;;
18249;SDS011;27980;52.126;5.572;2024-03-08T05:04:21;36.92;;;18.38;;
18249;SDS011;27980;52.126;5.572;2024-03-08T05:06:47;31.58;;;17.02;;
18249;SDS011;27980;52.126;5.572;2024-03-08T05:09:14;30.20;;;16.85;;
18249;SDS011;27980;52.126;5.572;2024-03-08T05:11:44;34.25;;;16.25;;
18249;SDS011;27980;52.126;5.572;2024-03-08T05:14:12;30.23;;;16.35;;
18249;SDS011;27980;52.126;5.572;2024-03-08T05:16:41;33.17;;;17.50;;
18249;SDS011;27980;52.126;5.572;2024-03-08T05:19:08;33.80;;;17.60;;
18249;SDS011;27980;52.126;5.572;2024-03-08T05:21:35;31.17;;;16.88;;
18249;SDS011;27980;52.126;5.572;2024-03-08T05:24:01;34.55;;;18.13;;
18249;SDS011;27980;52.126;5.572;2024-03-08T05:26:29;33.95;;;16.92;;
18249;SDS011;27980;52.126;5.572;2024-03-08T05:28:55;35.20;;;17.98;;
18249;SDS011;27980;52.126;5.572;2024-03-08T05:31:23;34.05;;;16.98;;
18249;SDS011;27980;52.126;5.572;2024-03-08T05:33:50;37.08;;;18.33;;
18249;SDS011;27980;52.126;5.572;2024-03-08T05:36:16;32.47;;;16.63;;
18249;SDS011;27980;52.126;5.572;2024-03-08T05:38:42;38.60;;;17.85;;
18249;SDS011;27980;52.126;5.572;2024-03-08T05:41:10;34.25;;;16.60;;
18249;SDS011;27980;52.126;5.572;2024-03-08T05:43:38;33.00;;;17.27;;
18249;SDS011;27980;52.126;5.572;2024-03-08T05:46:04;31.25;;;16.50;;
18249;SDS011;27980;52.126;5.572;2024-03-08T05:48:32;37.70;;;18.17;;
18249;SDS011;27980;52.126;5.572;2024-03-08T05:50:59;35.70;;;17.95;;
18249;SDS011;27980;52.126;5.572;2024-03-08T05:53:28;35.08;;;17.30;;
18249;SDS011;27980;52.126;5.572;2024-03-08T05:55:56;35.25;;;17.55;;
18249;SDS011;27980;52.126;5.572;2024-03-08T05:58:23;44.03;;;19.55;;
18249;SDS011;27980;52.126;5.572;2024-03-08T06:00:49;34.45;;;16.80;;
18249;SDS011;27980;52.126;5.572;2024-03-08T06:03:16;35.97;;;17.88;;
18249;SDS011;27980;52.126;5.572;2024-03-08T06:05:46;33.15;;;17.83;;
18249;SDS011;27980;52.126;5.572;2024-03-08T06:08:12;39.75;;;18.70;;
18249;SDS011;27980;52.126;5.572;2024-03-08T06:10:39;37.65;;;18.60;;
18249;SDS011;27980;52.126;5.572;2024-03-08T06:13:08;35.08;;;18.65;;
18249;SDS011;27980;52.126;5.572;2024-03-08T06:15:37;35.70;;;18.30;;
18249;SDS011;27980;52.126;5.572;2024-03-08T06:18:05;37.88;;;17.35;;
18249;SDS011;27980;52.126;5.572;2024-03-08T06:20:33;36.97;;;19.40;;
18249;SDS011;27980;52.126;5.572;2024-03-08T06:23:01;32.58;;;18.10;;
18249;SDS011;27980;52.126;5.572;2024-03-08T06:25:27;40.05;;;19.10;;
18249;SDS011;27980;52.126;5.572;2024-03-08T06:27:53;37.35;;;18.83;;
18249;SDS011;27980;52.126;5.572;2024-03-08T06:30:20;32.10;;;17.10;;
18249;SDS011;27980;52.126;5.572;2024-03-08T06:32:46;37.25;;;17.45;;
18249;SDS011;27980;52.126;5.572;2024-03-08T06:35:14;30.45;;;17.85;;
18249;SDS011;27980;52.126;5.572;2024-03-08T06:37:41;38.22;;;19.17;;
18249;SDS011;27980;52.126;5.572;2024-03-08T06:40:11;42.95;;;19.65;;
18249;SDS011;27980;52.126;5.572;2024-03-08T06:42:38;35.83;;;18.20;;
18249;SDS011;27980;52.126;5.572;2024-03-08T06:45:05;37.58;;;18.52;;
18249;SDS011;27980;52.126;5.572;2024-03-08T06:47:34;36.08;;;17.73;;
18249;SDS011;27980;52.126;5.572;2024-03-08T06:50:00;34.88;;;18.02;;
18249;SDS011;27980;52.126;5.572;2024-03-08T06:52:26;42.70;;;19.05;;
18249;SDS011;27980;52.126;5.572;2024-03-08T06:54:53;31.42;;;18.52;;
18249;SDS011;27980;52.126;5.572;2024-03-08T06:57:20;37.90;;;18.70;;
18249;SDS011;27980;52.126;5.572;2024-03-08T06:59:48;35.42;;;18.60;;
18249;SDS011;27980;52.126;5.572;2024-03-08T07:02:14;39.92;;;18.70;;
18249;SDS011;27980;52.126;5.572;2024-03-08T07:04:40;38.47;;;19.40;;
18249;SDS011;27980;52.126;5.572;2024-03-08T07:07:07;35.63;;;18.77;;
18249;SDS011;27980;52.126;5.572;2024-03-08T07:09:34;33.33;;;18.33;;
18249;SDS011;27980;52.126;5.572;2024-03-08T07:12:01;36.92;;;18.30;;
18249;SDS011;27980;52.126;5.572;2024-03-08T07:14:29;34.58;;;17.48;;
18249;SDS011;27980;52.126;5.572;2024-03-08T07:17:04;38.00;;;18.83;;
18249;SDS011;27980;52.126;5.572;2024-03-08T07:19:30;32.35;;;18.70;;
18249;SDS011;27980;52.126;5.572;2024-03-08T07:21:57;39.28;;;18.98;;
18249;SDS011;27980;52.126;5.572;2024-03-08T07:24:23;35.65;;;18.90;;
18249;SDS011;27980;52.126;5.572;2024-03-08T07:27:04;32.50;;;18.00;;
18249;SDS011;27980;52.126;5.572;2024-03-08T07:29:31;37.03;;;19.85;;
18249;SDS011;27980;52.126;5.572;2024-03-08T07:31:57;34.30;;;18.13;;
18249;SDS011;27980;52.126;5.572;2024-03-08T07:34:38;37.97;;;19.50;;
18249;SDS011;27980;52.126;5.572;2024-03-08T07:37:05;34.42;;;18.60;;
18249;SDS011;27980;52.126;5.572;2024-03-08T07:39:35;32.70;;;18.92;;
18249;SDS011;27980;52.126;5.572;2024-03-08T07:42:02;31.25;;;17.23;;
18249;SDS011;27980;52.126;5.572;2024-03-08T07:44:28;28.02;;;15.98;;
18249;SDS011;27980;52.126;5.572;2024-03-08T07:46:56;26.83;;;16.10;;
18249;SDS011;27980;52.126;5.572;2024-03-08T07:49:23;26.95;;;15.88;;
18249;SDS011;27980;52.126;5.572;2024-03-08T07:51:51;26.38;;;14.50;;
18249;SDS011;27980;52.126;5.572;2024-03-08T07:54:17;22.13;;;14.80;;
18249;SDS011;27980;52.126;5.572;2024-03-08T07:56:44;24.23;;;15.30;;
18249;SDS011;27980;52.126;5.572;2024-03-08T07:59:10;24.17;;;15.23;;
18249;SDS011;27980;52.126;5.572;2024-03-08T08:01:46;22.77;;;14.98;;
18249;SDS011;27980;52.126;5.572;2024-03-08T08:04:13;28.70;;;14.55;;
18249;SDS011;27980;52.126;5.572;2024-03-08T08:06:42;27.95;;;15.90;;
18249;SDS011;27980;52.126;5.572;2024-03-08T08:09:10;23.23;;;14.95;;
18249;SDS011;27980;52.126;5.572;2024-03-08T08:11:39;26.90;;;15.50;;
18249;SDS011;27980;52.126;5.572;2024-03-08T08:14:06;25.23;;;15.98;;
18249;SDS011;27980;52.126;5.572;2024-03-08T08:16:34;26.83;;;15.23;;
18249;SDS011;27980;52.126;5.572;2024-03-08T08:19:01;23.30;;;14.40;;
18249;SDS011;27980;52.126;5.572;2024-03-08T08:21:30;20.40;;;13.77;;
18249;SDS011;27980;52.126;5.572;2024-03-08T08:23:56;25.70;;;14.27;;
18249;SDS011;27980;52.126;5.572;2024-03-08T08:26:24;23.70;;;14.82;;
18249;SDS011;27980;52.126;5.572;2024-03-08T08:28:51;24.90;;;14.48;;
18249;SDS011;27980;52.126;5.572;2024-03-08T08:31:18;22.13;;;14.55;;
18249;SDS011;27980;52.126;5.572;2024-03-08T08:33:44;24.10;;;15.20;;
18249;SDS011;27980;52.126;5.572;2024-03-08T08:36:13;20.35;;;13.70;;
18249;SDS011;27980;52.126;5.572;2024-03-08T08:38:39;25.20;;;14.38;;
18249;SDS011;27980;52.126;5.572;2024-03-08T08:41:07;22.40;;;14.20;;
18249;SDS011;27980;52.126;5.572;2024-03-08T08:43:37;20.75;;;13.95;;
18249;SDS011;27980;52.126;5.572;2024-03-08T08:46:04;24.50;;;14.13;;
18249;SDS011;27980;52.126;5.572;2024-03-08T08:48:31;23.65;;;13.77;;
18249;SDS011;27980;52.126;5.572;2024-03-08T08:50:57;24.33;;;14.35;;
18249;SDS011;27980;52.126;5.572;2024-03-08T08:53:24;21.33;;;14.05;;
18249;SDS011;27980;52.126;5.572;2024-03-08T08:55:50;23.85;;;14.82;;
18249;SDS011;27980;52.126;5.572;2024-03-08T08:58:18;23.27;;;14.32;;
18249;SDS011;27980;52.126;5.572;2024-03-08T09:00:46;22.55;;;14.52;;
18249;SDS011;27980;52.126;5.572;2024-03-08T09:03:12;21.33;;;14.40;;
18249;SDS011;27980;52.126;5.572;2024-03-08T09:05:39;21.13;;;13.75;;
18249;SDS011;27980;52.126;5.572;2024-03-08T09:08:07;20.05;;;13.88;;
18249;SDS011;27980;52.126;5.572;2024-03-08T09:10:34;24.88;;;14.52;;
18249;SDS011;27980;52.126;5.572;2024-03-08T09:13:01;20.15;;;13.35;;
18249;SDS011;27980;52.126;5.572;2024-03-08T09:15:29;22.20;;;14.30;;
18249;SDS011;27980;52.126;5.572;2024-03-08T09:17:57;20.08;;;13.45;;
18249;SDS011;27980;52.126;5.572;2024-03-08T09:20:24;20.35;;;13.10;;
18249;SDS011;27980;52.126;5.572;2024-03-08T09:22:50;21.88;;;14.65;;
18249;SDS011;27980;52.126;5.572;2024-03-08T09:25:17;24.20;;;14.90;;
18249;SDS011;27980;52.126;5.572;2024-03-08T09:27:43;20.13;;;13.73;;
18249;SDS011;27980;52.126;5.572;2024-03-08T09:30:11;21.55;;;14.00;;
18249;SDS011;27980;52.126;5.572;2024-03-08T09:32:38;26.23;;;13.05;;
18249;SDS011;27980;52.126;5.572;2024-03-08T09:35:06;22.67;;;14.75;;
18249;SDS011;27980;52.126;5.572;2024-03-08T09:37:33;20.10;;;13.70;;
18249;SDS011;27980;52.126;5.572;2024-03-08T09:40:00;22.30;;;14.05;;
18249;SDS011;27980;52.126;5.572;2024-03-08T09:42:29;21.75;;;13.82;;
18249;SDS011;27980;52.126;5.572;2024-03-08T09:44:56;19.38;;;13.02;;
18249;SDS011;27980;52.126;5.572;2024-03-08T09:47:23;22.45;;;14.18;;
18249;SDS011;27980;52.126;5.572;2024-03-08T09:49:54;19.92;;;13.15;;
18249;SDS011;27980;52.126;5.572;2024-03-08T09:52:22;18.92;;;12.95;;
18249;SDS011;27980;52.126;5.572;2024-03-08T09:54:48;20.98;;;13.60;;
18249;SDS011;27980;52.126;5.572;2024-03-08T09:57:14;23.40;;;13.55;;
18249;SDS011;27980;52.126;5.572;2024-03-08T09:59:42;20.13;;;13.32;;
18249;SDS011;27980;52.126;5.572;2024-03-08T10:02:14;21.55;;;13.70;;
18249;SDS011;27980;52.126;5.572;2024-03-08T10:04:41;21.98;;;14.27;;
18249;SDS011;27980;52.126;5.572;2024-03-08T10:07:08;19.05;;;12.73;;
18249;SDS011;27980;52.126;5.572;2024-03-08T10:09:35;22.73;;;13.52;;
18249;SDS011;27980;52.126;5.572;2024-03-08T10:12:02;20.48;;;13.55;;
18249;SDS011;27980;52.126;5.572;2024-03-08T10:14:30;19.70;;;12.82;;
18249;SDS011;27980;52.126;5.572;2024-03-08T10:16:57;20.23;;;13.20;;
18249;SDS011;27980;52.126;5.572;2024-03-08T10:19:25;18.90;;;13.25;;
18249;SDS011;27980;52.126;5.572;2024-03-08T10:21:51;19.67;;;13.55;;
18249;SDS011;27980;52.126;5.572;2024-03-08T10:24:18;18.80;;;12.80;;
18249;SDS011;27980;52.126;5.572;2024-03-08T10:26:46;18.25;;;12.82;;
18249;SDS011;27980;52.126;5.572;2024-03-08T10:29:13;20.05;;;13.00;;
18249;SDS011;27980;52.126;5.572;2024-03-08T10:31:42;20.30;;;13.13;;
18249;SDS011;27980;52.126;5.572;2024-03-08T10:34:09;21.85;;;13.77;;
18249;SDS011;27980;52.126;5.572;2024-03-08T10:36:35;22.98;;;13.10;;
18249;SDS011;27980;52.126;5.572;2024-03-08T10:39:03;19.98;;;12.82;;
18249;SDS011;27980;52.126;5.572;2024-03-08T10:41:34;19.80;;;13.13;;
18249;SDS011;27980;52.126;5.572;2024-03-08T10:44:13;22.13;;;13.18;;
18249;SDS011;27980;52.126;5.572;2024-03-08T10:46:45;18.83;;;12.95;;
18249;SDS011;27980;52.126;5.572;2024-03-08T10:49:16;19.25;;;12.75;;
18249;SDS011;27980;52.126;5.572;2024-03-08T10:51:43;21.98;;;13.02;;
18249;SDS011;27980;52.126;5.572;2024-03-08T10:54:11;16.67;;;12.45;;
18249;SDS011;27980;52.126;5.572;2024-03-08T10:56:38;20.13;;;12.90;;
18249;SDS011;27980;52.126;5.572;2024-03-08T10:59:05;17.92;;;12.32;;
18249;SDS011;27980;52.126;5.572;2024-03-08T11:01:33;18.08;;;12.18;;
18249;SDS011;27980;52.126;5.572;2024-03-08T11:03:59;18.40;;;12.00;;
18249;SDS011;27980;52.126;5.572;2024-03-08T11:06:29;16.98;;;12.10;;
18249;SDS011;27980;52.126;5.572;2024-03-08T11:08:57;19.20;;;11.77;;
18249;SDS011;27980;52.126;5.572;2024-03-08T11:11:24;18.33;;;11.75;;
18249;SDS011;27980;52.126;5.572;2024-03-08T11:13:52;19.25;;;12.38;;
18249;SDS011;27980;52.126;5.572;2024-03-08T11:19:06;18.05;;;11.77;;
18249;SDS011;27980;52.126;5.572;2024-03-08T11:21:35;17.42;;;11.88;;
18249;SDS011;27980;52.126;5.572;2024-03-08T11:24:06;18.23;;;11.82;;
18249;SDS011;27980;52.126;5.572;2024-03-08T11:26:34;18.08;;;11.32;;
18249;SDS011;27980;52.126;5.572;2024-03-08T11:31:42;17.40;;;10.75;;
18249;SDS011;27980;52.126;5.572;2024-03-08T11:34:16;16.33;;;11.35;;
18249;SDS011;27980;52.126;5.572;2024-03-08T11:36:44;14.00;;;10.43;;
18249;SDS011;27980;52.126;5.572;2024-03-08T11:39:14;13.25;;;10.30;;
18249;SDS011;27980;52.126;5.572;2024-03-08T11:41:42;16.27;;;11.27;;
18249;SDS011;27980;52.126;5.572;2024-03-08T11:44:10;18.45;;;10.75;;
18249;SDS011;27980;52.126;5.572;2024-03-08T11:46:41;16.65;;;11.35;;
18249;SDS011;27980;52.126;5.572;2024-03-08T11:49:11;17.98;;;11.70;;
18249;SDS011;27980;52.126;5.572;2024-03-08T11:51:39;14.30;;;9.77;;
18249;SDS011;27980;52.126;5.572;2024-03-08T11:54:06;20.48;;;12.05;;
18249;SDS011;27980;52.126;5.572;2024-03-08T11:56:32;14.73;;;10.90;;
18249;SDS011;27980;52.126;5.572;2024-03-08T11:58:59;16.05;;;10.88;;
18249;SDS011;27980;52.126;5.572;2024-03-08T12:01:26;16.65;;;11.52;;
18249;SDS011;27980;52.126;5.572;2024-03-08T12:03:53;13.77;;;9.93;;
18249;SDS011;27980;52.126;5.572;2024-03-08T12:06:20;18.92;;;11.93;;
18249;SDS011;27980;52.126;5.572;2024-03-08T12:08:49;16.67;;;10.70;;
18249;SDS011;27980;52.126;5.572;2024-03-08T12:11:16;15.00;;;10.98;;
18249;SDS011;27980;52.126;5.572;2024-03-08T12:13:44;14.75;;;9.70;;
18249;SDS011;27980;52.126;5.572;2024-03-08T12:16:15;14.23;;;10.00;;
18249;SDS011;27980;52.126;5.572;2024-03-08T12:18:42;13.65;;;10.13;;
18249;SDS011;27980;52.126;5.572;2024-03-08T12:21:11;16.05;;;9.55;;
18249;SDS011;27980;52.126;5.572;2024-03-08T12:23:39;13.68;;;9.75;;
18249;SDS011;27980;52.126;5.572;2024-03-08T12:26:11;14.35;;;9.57;;
18249;SDS011;27980;52.126;5.572;2024-03-08T12:28:38;14.90;;;9.82;;
18249;SDS011;27980;52.126;5.572;2024-03-08T12:31:06;17.33;;;9.95;;
18249;SDS011;27980;52.126;5.572;2024-03-08T12:33:35;13.52;;;10.18;;
18249;SDS011;27980;52.126;5.572;2024-03-08T12:36:01;15.00;;;9.98;;
18249;SDS011;27980;52.126;5.572;2024-03-08T12:38:32;24.50;;;11.18;;
18249;SDS011;27980;52.126;5.572;2024-03-08T12:41:00;15.57;;;10.25;;
18249;SDS011;27980;52.126;5.572;2024-03-08T12:43:28;15.55;;;10.57;;
18249;SDS011;27980;52.126;5.572;2024-03-08T12:45:56;18.52;;;11.45;;
18249;SDS011;27980;52.126;5.572;2024-03-08T12:48:23;14.73;;;10.45;;
18249;SDS011;27980;52.126;5.572;2024-03-08T12:50:50;17.92;;;11.32;;
18249;SDS011;27980;52.126;5.572;2024-03-08T12:53:17;16.75;;;11.13;;
18249;SDS011;27980;52.126;5.572;2024-03-08T12:55:43;16.05;;;10.82;;
18249;SDS011;27980;52.126;5.572;2024-03-08T12:58:10;18.13;;;11.15;;
18249;SDS011;27980;52.126;5.572;2024-03-08T13:00:37;20.00;;;11.35;;
18249;SDS011;27980;52.126;5.572;2024-03-08T13:03:08;17.25;;;11.27;;
18249;SDS011;27980;52.126;5.572;2024-03-08T13:05:35;15.82;;;10.48;;
18249;SDS011;27980;52.126;5.572;2024-03-08T13:08:05;17.90;;;10.80;;
18249;SDS011;27980;52.126;5.572;2024-03-08T13:10:32;17.27;;;10.88;;
18249;SDS011;27980;52.126;5.572;2024-03-08T13:12:58;16.75;;;11.27;;
18249;SDS011;27980;52.126;5.572;2024-03-08T13:15:25;15.68;;;11.07;;
18249;SDS011;27980;52.126;5.572;2024-03-08T13:17:53;16.48;;;10.95;;
18249;SDS011;27980;52.126;5.572;2024-03-08T13:20:20;15.60;;;11.07;;
18249;SDS011;27980;52.126;5.572;2024-03-08T13:22:48;19.38;;;11.43;;
18249;SDS011;27980;52.126;5.572;2024-03-08T13:25:14;17.27;;;11.23;;
18249;SDS011;27980;52.126;5.572;2024-03-08T13:27:41;16.10;;;10.63;;
18249;SDS011;27980;52.126;5.572;2024-03-08T13:30:08;14.88;;;10.65;;
18249;SDS011;27980;52.126;5.572;2024-03-08T13:32:37;17.55;;;11.32;;
18249;SDS011;27980;52.126;5.572;2024-03-08T13:35:09;15.10;;;10.45;;
18249;SDS011;27980;52.126;5.572;2024-03-08T13:37:37;16.30;;;10.65;;
18249;SDS011;27980;52.126;5.572;2024-03-08T13:40:05;15.15;;;10.23;;
18249;SDS011;27980;52.126;5.572;2024-03-08T13:42:35;15.90;;;10.68;;
18249;SDS011;27980;52.126;5.572;2024-03-08T13:45:03;18.70;;;11.63;;
18249;SDS011;27980;52.126;5.572;2024-03-08T13:47:30;17.15;;;10.93;;
18249;SDS011;27980;52.126;5.572;2024-03-08T13:49:56;20.20;;;12.13;;
18249;SDS011;27980;52.126;5.572;2024-03-08T13:52:24;16.38;;;11.05;;
18249;SDS011;27980;52.126;5.572;2024-03-08T13:54:54;17.85;;;10.75;;
18249;SDS011;27980;52.126;5.572;2024-03-08T13:57:20;15.43;;;10.27;;
18249;SDS011;27980;52.126;5.572;2024-03-08T13:59:47;16.55;;;10.75;;
18249;SDS011;27980;52.126;5.572;2024-03-08T14:02:14;17.58;;;11.05;;
18249;SDS011;27980;52.126;5.572;2024-03-08T14:04:42;17.20;;;11.20;;
18249;SDS011;27980;52.126;5.572;2024-03-08T14:07:09;17.20;;;11.35;;
18249;SDS011;27980;52.126;5.572;2024-03-08T14:09:37;18.88;;;11.27;;
18249;SDS011;27980;52.126;5.572;2024-03-08T14:12:08;17.98;;;11.65;;
18249;SDS011;27980;52.126;5.572;2024-03-08T14:14:34;17.38;;;11.27;;
18249;SDS011;27980;52.126;5.572;2024-03-08T14:17:04;15.98;;;10.75;;
18249;SDS011;27980;52.126;5.572;2024-03-08T14:19:32;19.30;;;11.60;;
18249;SDS011;27980;52.126;5.572;2024-03-08T14:21:59;17.70;;;11.45;;
18249;SDS011;27980;52.126;5.572;2024-03-08T14:24:25;18.40;;;11.32;;
18249;SDS011;27980;52.126;5.572;2024-03-08T14:26:53;17.98;;;10.90;;
18249;SDS011;27980;52.126;5.572;2024-03-08T14:29:19;20.80;;;12.05;;